sensor_id;sensor_type;location;lat;lon;timestamp;temperature;humidity
27266;DHT22;14766;51.380;13.762;2023-05-10T00:01:53;16.00;44.40
27266;DHT22;14766;51.380;13.762;2023-05-10T00:04:21;16.00;44.20
27266;DHT22;14766;51.380;13.762;2023-05-10T00:06:49;16.00;44.50
27266;DHT22;14766;51.380;13.762;2023-05-10T00:09:16;15.90;44.50
27266;DHT22;14766;51.380;13.762;2023-05-10T00:11:44;15.90;44.70
27266;DHT22;14766;51.380;13.762;2023-05-10T00:14:12;15.90;44.50
27266;DHT22;14766;51.380;13.762;2023-05-10T00:16:39;15.90;44.70
27266;DHT22;14766;51.380;13.762;2023-05-10T00:19:06;15.80;44.60
27266;DHT22;14766;51.380;13.762;2023-05-10T00:21:33;15.80;44.50
27266;DHT22;14766;51.380;13.762;2023-05-10T00:24:00;15.80;44.80
27266;DHT22;14766;51.380;13.762;2023-05-10T00:26:27;15.80;44.60
27266;DHT22;14766;51.380;13.762;2023-05-10T00:28:55;15.70;44.70
27266;DHT22;14766;51.380;13.762;2023-05-10T00:31:23;15.70;44.80
27266;DHT22;14766;51.380;13.762;2023-05-10T00:33:50;15.70;45.00
27266;DHT22;14766;51.380;13.762;2023-05-10T00:36:17;15.70;45.00
27266;DHT22;14766;51.380;13.762;2023-05-10T00:38:45;15.70;44.90
27266;DHT22;14766;51.380;13.762;2023-05-10T00:41:12;15.70;45.00
27266;DHT22;14766;51.380;13.762;2023-05-10T00:43:50;15.70;45.20
27266;DHT22;14766;51.380;13.762;2023-05-10T00:46:18;15.70;45.40
27266;DHT22;14766;51.380;13.762;2023-05-10T00:48:45;15.70;45.20
27266;DHT22;14766;51.380;13.762;2023-05-10T00:51:13;15.70;45.30
27266;DHT22;14766;51.380;13.762;2023-05-10T00:53:40;15.70;45.40
27266;DHT22;14766;51.380;13.762;2023-05-10T00:56:07;15.70;45.40
27266;DHT22;14766;51.380;13.762;2023-05-10T00:58:36;15.60;45.30
27266;DHT22;14766;51.380;13.762;2023-05-10T01:01:03;15.60;45.30
27266;DHT22;14766;51.380;13.762;2023-05-10T01:03:31;15.60;45.40
27266;DHT22;14766;51.380;13.762;2023-05-10T01:05:59;15.60;45.40
27266;DHT22;14766;51.380;13.762;2023-05-10T01:08:26;15.60;45.50
27266;DHT22;14766;51.380;13.762;2023-05-10T01:10:56;15.50;45.50
27266;DHT22;14766;51.380;13.762;2023-05-10T01:13:35;15.50;45.70
27266;DHT22;14766;51.380;13.762;2023-05-10T01:16:03;15.50;45.80
27266;DHT22;14766;51.380;13.762;2023-05-10T01:18:36;15.50;45.90
27266;DHT22;14766;51.380;13.762;2023-05-10T01:35:42;15.40;46.20
27266;DHT22;14766;51.380;13.762;2023-05-10T01:38:31;15.30;46.50
27266;DHT22;14766;51.380;13.762;2023-05-10T01:44:01;15.30;46.40
27266;DHT22;14766;51.380;13.762;2023-05-10T01:46:38;15.20;46.30
27266;DHT22;14766;51.380;13.762;2023-05-10T01:49:14;15.20;46.40
27266;DHT22;14766;51.380;13.762;2023-05-10T01:51:50;15.20;46.40
27266;DHT22;14766;51.380;13.762;2023-05-10T01:54:20;15.10;46.50
27266;DHT22;14766;51.380;13.762;2023-05-10T01:56:52;15.10;46.60
27266;DHT22;14766;51.380;13.762;2023-05-10T01:59:29;15.10;46.70
27266;DHT22;14766;51.380;13.762;2023-05-10T02:01:58;15.00;46.70
27266;DHT22;14766;51.380;13.762;2023-05-10T02:04:27;15.00;46.50
27266;DHT22;14766;51.380;13.762;2023-05-10T02:06:55;15.00;46.50
27266;DHT22;14766;51.380;13.762;2023-05-10T02:09:23;15.00;46.70
27266;DHT22;14766;51.380;13.762;2023-05-10T02:11:53;14.90;46.80
27266;DHT22;14766;51.380;13.762;2023-05-10T02:14:21;14.90;46.80
27266;DHT22;14766;51.380;13.762;2023-05-10T02:16:50;14.90;46.70
27266;DHT22;14766;51.380;13.762;2023-05-10T02:19:18;14.90;46.70
27266;DHT22;14766;51.380;13.762;2023-05-10T02:21:47;14.80;46.70
27266;DHT22;14766;51.380;13.762;2023-05-10T02:24:15;14.80;46.80
27266;DHT22;14766;51.380;13.762;2023-05-10T02:26:44;14.80;46.90
27266;DHT22;14766;51.380;13.762;2023-05-10T02:29:14;14.80;47.00
27266;DHT22;14766;51.380;13.762;2023-05-10T02:31:42;14.70;47.10
27266;DHT22;14766;51.380;13.762;2023-05-10T02:34:11;14.70;47.20
27266;DHT22;14766;51.380;13.762;2023-05-10T02:36:39;14.70;47.40
27266;DHT22;14766;51.380;13.762;2023-05-10T02:39:07;14.60;47.50
27266;DHT22;14766;51.380;13.762;2023-05-10T02:41:41;14.60;47.60
27266;DHT22;14766;51.380;13.762;2023-05-10T02:44:09;14.60;47.70
27266;DHT22;14766;51.380;13.762;2023-05-10T02:46:38;14.60;47.80
27266;DHT22;14766;51.380;13.762;2023-05-10T02:49:05;14.50;47.90
27266;DHT22;14766;51.380;13.762;2023-05-10T02:51:35;14.50;48.00
27266;DHT22;14766;51.380;13.762;2023-05-10T02:54:18;14.50;47.90
27266;DHT22;14766;51.380;13.762;2023-05-10T02:56:52;14.40;48.20
27266;DHT22;14766;51.380;13.762;2023-05-10T02:59:20;14.40;48.30
27266;DHT22;14766;51.380;13.762;2023-05-10T03:01:47;14.40;48.30
27266;DHT22;14766;51.380;13.762;2023-05-10T03:04:14;14.30;48.10
27266;DHT22;14766;51.380;13.762;2023-05-10T03:06:42;14.30;48.30
27266;DHT22;14766;51.380;13.762;2023-05-10T03:09:10;14.30;48.30
27266;DHT22;14766;51.380;13.762;2023-05-10T03:17:19;14.20;48.50
27266;DHT22;14766;51.380;13.762;2023-05-10T03:19:57;14.20;48.50
27266;DHT22;14766;51.380;13.762;2023-05-10T03:22:31;14.20;49.30
27266;DHT22;14766;51.380;13.762;2023-05-10T03:25:00;14.20;48.70
27266;DHT22;14766;51.380;13.762;2023-05-10T03:27:32;14.20;48.70
27266;DHT22;14766;51.380;13.762;2023-05-10T03:30:02;14.10;48.70
27266;DHT22;14766;51.380;13.762;2023-05-10T03:32:32;14.10;48.80
27266;DHT22;14766;51.380;13.762;2023-05-10T03:35:06;14.10;48.90
27266;DHT22;14766;51.380;13.762;2023-05-10T03:37:35;14.10;49.20
27266;DHT22;14766;51.380;13.762;2023-05-10T03:40:04;14.10;49.00
27266;DHT22;14766;51.380;13.762;2023-05-10T03:42:33;14.10;49.20
27266;DHT22;14766;51.380;13.762;2023-05-10T03:45:00;14.00;49.30
27266;DHT22;14766;51.380;13.762;2023-05-10T03:47:27;14.00;49.30
27266;DHT22;14766;51.380;13.762;2023-05-10T03:49:58;14.00;49.40
27266;DHT22;14766;51.380;13.762;2023-05-10T03:52:25;14.00;49.50
27266;DHT22;14766;51.380;13.762;2023-05-10T03:54:52;13.90;49.50
27266;DHT22;14766;51.380;13.762;2023-05-10T03:57:19;13.90;49.70
27266;DHT22;14766;51.380;13.762;2023-05-10T03:59:46;13.90;49.80
27266;DHT22;14766;51.380;13.762;2023-05-10T04:02:13;13.90;49.80
27266;DHT22;14766;51.380;13.762;2023-05-10T04:04:40;13.90;49.90
27266;DHT22;14766;51.380;13.762;2023-05-10T04:07:08;13.90;49.90
27266;DHT22;14766;51.380;13.762;2023-05-10T04:09:37;13.90;49.90
27266;DHT22;14766;51.380;13.762;2023-05-10T04:12:04;13.90;50.00
27266;DHT22;14766;51.380;13.762;2023-05-10T04:14:31;13.80;50.10
27266;DHT22;14766;51.380;13.762;2023-05-10T04:16:58;13.90;50.20
27266;DHT22;14766;51.380;13.762;2023-05-10T04:19:29;13.90;50.40
27266;DHT22;14766;51.380;13.762;2023-05-10T04:21:57;13.90;50.40
27266;DHT22;14766;51.380;13.762;2023-05-10T04:24:25;13.90;50.40
27266;DHT22;14766;51.380;13.762;2023-05-10T04:26:52;13.90;50.30
27266;DHT22;14766;51.380;13.762;2023-05-10T04:29:23;14.00;50.40
27266;DHT22;14766;51.380;13.762;2023-05-10T04:31:50;14.00;50.40
27266;DHT22;14766;51.380;13.762;2023-05-10T04:34:22;14.00;50.50
27266;DHT22;14766;51.380;13.762;2023-05-10T04:36:50;14.00;50.40
27266;DHT22;14766;51.380;13.762;2023-05-10T04:39:17;14.10;50.50
27266;DHT22;14766;51.380;13.762;2023-05-10T04:41:44;14.10;50.60
27266;DHT22;14766;51.380;13.762;2023-05-10T04:44:11;14.20;50.50
27266;DHT22;14766;51.380;13.762;2023-05-10T04:46:39;14.20;50.60
27266;DHT22;14766;51.380;13.762;2023-05-10T04:49:06;14.30;50.70
27266;DHT22;14766;51.380;13.762;2023-05-10T04:51:34;14.40;50.80
27266;DHT22;14766;51.380;13.762;2023-05-10T04:54:01;14.40;50.80
27266;DHT22;14766;51.380;13.762;2023-05-10T04:56:33;14.40;51.10
27266;DHT22;14766;51.380;13.762;2023-05-10T04:59:01;14.50;50.80
27266;DHT22;14766;51.380;13.762;2023-05-10T05:01:29;14.60;51.00
27266;DHT22;14766;51.380;13.762;2023-05-10T05:03:56;14.60;51.00
27266;DHT22;14766;51.380;13.762;2023-05-10T05:06:26;14.70;50.90
27266;DHT22;14766;51.380;13.762;2023-05-10T05:08:54;14.70;50.80
27266;DHT22;14766;51.380;13.762;2023-05-10T05:11:22;14.90;50.80
27266;DHT22;14766;51.380;13.762;2023-05-10T05:13:50;15.00;50.80
27266;DHT22;14766;51.380;13.762;2023-05-10T05:16:18;15.10;50.40
27266;DHT22;14766;51.380;13.762;2023-05-10T05:18:45;15.20;50.30
27266;DHT22;14766;51.380;13.762;2023-05-10T05:21:16;15.30;50.00
27266;DHT22;14766;51.380;13.762;2023-05-10T05:23:44;15.40;50.00
27266;DHT22;14766;51.380;13.762;2023-05-10T05:26:12;15.50;49.70
27266;DHT22;14766;51.380;13.762;2023-05-10T05:28:39;15.60;49.50
27266;DHT22;14766;51.380;13.762;2023-05-10T05:31:06;15.70;49.40
27266;DHT22;14766;51.380;13.762;2023-05-10T05:33:37;15.80;48.90
27266;DHT22;14766;51.380;13.762;2023-05-10T05:36:04;15.90;48.80
27266;DHT22;14766;51.380;13.762;2023-05-10T05:38:32;16.00;48.70
27266;DHT22;14766;51.380;13.762;2023-05-10T05:41:00;16.10;48.40
27266;DHT22;14766;51.380;13.762;2023-05-10T05:43:27;16.20;48.50
27266;DHT22;14766;51.380;13.762;2023-05-10T05:45:54;16.30;48.30
27266;DHT22;14766;51.380;13.762;2023-05-10T05:48:21;16.40;48.10
27266;DHT22;14766;51.380;13.762;2023-05-10T05:50:48;16.50;47.80
27266;DHT22;14766;51.380;13.762;2023-05-10T05:53:15;16.50;47.60
27266;DHT22;14766;51.380;13.762;2023-05-10T05:58:21;16.70;47.40
27266;DHT22;14766;51.380;13.762;2023-05-10T06:00:49;16.80;46.90
27266;DHT22;14766;51.380;13.762;2023-05-10T06:03:16;16.90;46.90
27266;DHT22;14766;51.380;13.762;2023-05-10T06:05:45;17.00;46.70
27266;DHT22;14766;51.380;13.762;2023-05-10T06:08:12;17.10;46.40
27266;DHT22;14766;51.380;13.762;2023-05-10T06:10:39;17.10;46.00
27266;DHT22;14766;51.380;13.762;2023-05-10T06:13:06;17.10;45.80
27266;DHT22;14766;51.380;13.762;2023-05-10T06:15:33;17.20;45.60
27266;DHT22;14766;51.380;13.762;2023-05-10T06:18:00;17.20;45.80
27266;DHT22;14766;51.380;13.762;2023-05-10T06:20:27;17.30;45.80
27266;DHT22;14766;51.380;13.762;2023-05-10T06:22:54;17.30;45.70
27266;DHT22;14766;51.380;13.762;2023-05-10T06:25:21;17.40;45.40
27266;DHT22;14766;51.380;13.762;2023-05-10T06:27:49;17.50;45.50
27266;DHT22;14766;51.380;13.762;2023-05-10T06:30:19;17.60;45.60
27266;DHT22;14766;51.380;13.762;2023-05-10T06:32:47;17.70;45.10
27266;DHT22;14766;51.380;13.762;2023-05-10T06:35:14;17.70;45.00
27266;DHT22;14766;51.380;13.762;2023-05-10T06:37:42;17.80;45.20
27266;DHT22;14766;51.380;13.762;2023-05-10T06:40:09;17.90;45.10
27266;DHT22;14766;51.380;13.762;2023-05-10T06:42:36;18.00;45.10
27266;DHT22;14766;51.380;13.762;2023-05-10T06:45:04;18.10;44.90
27266;DHT22;14766;51.380;13.762;2023-05-10T06:47:33;18.20;44.70
27266;DHT22;14766;51.380;13.762;2023-05-10T06:50:04;18.40;44.70
27266;DHT22;14766;51.380;13.762;2023-05-10T06:52:32;18.50;44.30
27266;DHT22;14766;51.380;13.762;2023-05-10T06:54:59;18.60;44.10
27266;DHT22;14766;51.380;13.762;2023-05-10T06:57:27;18.70;43.90
27266;DHT22;14766;51.380;13.762;2023-05-10T06:59:58;18.90;43.20
27266;DHT22;14766;51.380;13.762;2023-05-10T07:02:26;19.10;43.40
27266;DHT22;14766;51.380;13.762;2023-05-10T07:04:53;19.30;43.70
27266;DHT22;14766;51.380;13.762;2023-05-10T07:07:21;19.50;43.50
27266;DHT22;14766;51.380;13.762;2023-05-10T07:09:48;19.80;42.60
27266;DHT22;14766;51.380;13.762;2023-05-10T07:12:16;20.00;41.60
27266;DHT22;14766;51.380;13.762;2023-05-10T07:14:44;20.30;41.50
27266;DHT22;14766;51.380;13.762;2023-05-10T07:17:11;20.50;41.50
27266;DHT22;14766;51.380;13.762;2023-05-10T07:19:38;20.70;40.80
27266;DHT22;14766;51.380;13.762;2023-05-10T07:22:05;20.90;39.70
27266;DHT22;14766;51.380;13.762;2023-05-10T07:24:33;21.00;39.60
27266;DHT22;14766;51.380;13.762;2023-05-10T07:27:00;21.20;39.30
27266;DHT22;14766;51.380;13.762;2023-05-10T07:29:27;21.40;39.10
27266;DHT22;14766;51.380;13.762;2023-05-10T07:31:55;21.50;38.50
27266;DHT22;14766;51.380;13.762;2023-05-10T07:34:25;21.60;38.80
27266;DHT22;14766;51.380;13.762;2023-05-10T07:36:52;21.80;38.60
27266;DHT22;14766;51.380;13.762;2023-05-10T07:39:20;21.90;38.30
27266;DHT22;14766;51.380;13.762;2023-05-10T07:41:55;22.10;38.00
27266;DHT22;14766;51.380;13.762;2023-05-10T07:44:23;22.30;36.70
27266;DHT22;14766;51.380;13.762;2023-05-10T07:46:50;22.50;36.80
27266;DHT22;14766;51.380;13.762;2023-05-10T07:49:17;22.60;36.70
27266;DHT22;14766;51.380;13.762;2023-05-10T07:51:44;22.80;37.00
27266;DHT22;14766;51.380;13.762;2023-05-10T07:54:11;23.00;36.30
27266;DHT22;14766;51.380;13.762;2023-05-10T07:56:39;23.10;36.20
27266;DHT22;14766;51.380;13.762;2023-05-10T07:59:08;23.30;36.30
27266;DHT22;14766;51.380;13.762;2023-05-10T08:01:38;23.50;36.20
27266;DHT22;14766;51.380;13.762;2023-05-10T08:04:05;23.70;34.90
27266;DHT22;14766;51.380;13.762;2023-05-10T08:06:33;23.90;34.60
27266;DHT22;14766;51.380;13.762;2023-05-10T08:09:01;24.00;34.10
27266;DHT22;14766;51.380;13.762;2023-05-10T08:11:29;24.20;33.70
27266;DHT22;14766;51.380;13.762;2023-05-10T08:14:00;24.30;33.80
27266;DHT22;14766;51.380;13.762;2023-05-10T08:16:27;24.50;34.10
27266;DHT22;14766;51.380;13.762;2023-05-10T08:18:54;24.60;32.70
27266;DHT22;14766;51.380;13.762;2023-05-10T08:21:22;24.70;33.20
27266;DHT22;14766;51.380;13.762;2023-05-10T08:23:49;24.80;32.80
27266;DHT22;14766;51.380;13.762;2023-05-10T08:26:16;25.00;32.70
27266;DHT22;14766;51.380;13.762;2023-05-10T08:28:43;25.10;32.20
27266;DHT22;14766;51.380;13.762;2023-05-10T08:31:10;25.30;32.00
27266;DHT22;14766;51.380;13.762;2023-05-10T08:33:37;25.40;31.50
27266;DHT22;14766;51.380;13.762;2023-05-10T08:36:04;25.50;31.50
27266;DHT22;14766;51.380;13.762;2023-05-10T08:38:31;25.70;31.30
27266;DHT22;14766;51.380;13.762;2023-05-10T08:40:59;25.70;30.60
27266;DHT22;14766;51.380;13.762;2023-05-10T08:43:28;25.70;30.80
27266;DHT22;14766;51.380;13.762;2023-05-10T08:46:00;25.80;31.20
27266;DHT22;14766;51.380;13.762;2023-05-10T08:48:33;25.90;31.30
27266;DHT22;14766;51.380;13.762;2023-05-10T08:51:02;26.00;31.60
27266;DHT22;14766;51.380;13.762;2023-05-10T08:53:30;26.10;30.60
27266;DHT22;14766;51.380;13.762;2023-05-10T08:55:58;26.20;30.50
27266;DHT22;14766;51.380;13.762;2023-05-10T08:58:26;26.30;30.90
27266;DHT22;14766;51.380;13.762;2023-05-10T09:00:56;26.40;30.50
27266;DHT22;14766;51.380;13.762;2023-05-10T09:03:23;26.50;30.50
27266;DHT22;14766;51.380;13.762;2023-05-10T09:05:50;26.60;29.80
27266;DHT22;14766;51.380;13.762;2023-05-10T09:08:18;26.70;29.90
27266;DHT22;14766;51.380;13.762;2023-05-10T09:10:45;26.80;30.00
27266;DHT22;14766;51.380;13.762;2023-05-10T09:13:19;26.90;29.70
27266;DHT22;14766;51.380;13.762;2023-05-10T09:15:47;27.00;29.50
27266;DHT22;14766;51.380;13.762;2023-05-10T09:18:14;27.00;28.90
27266;DHT22;14766;51.380;13.762;2023-05-10T09:20:41;27.10;29.50
27266;DHT22;14766;51.380;13.762;2023-05-10T09:23:08;27.10;29.30
27266;DHT22;14766;51.380;13.762;2023-05-10T09:25:36;27.20;28.80
27266;DHT22;14766;51.380;13.762;2023-05-10T09:28:08;27.20;28.90
27266;DHT22;14766;51.380;13.762;2023-05-10T09:30:36;27.20;28.50
27266;DHT22;14766;51.380;13.762;2023-05-10T09:33:03;27.20;28.60
27266;DHT22;14766;51.380;13.762;2023-05-10T09:35:32;27.30;29.10
27266;DHT22;14766;51.380;13.762;2023-05-10T09:38:04;27.30;29.20
27266;DHT22;14766;51.380;13.762;2023-05-10T09:40:31;27.30;28.40
27266;DHT22;14766;51.380;13.762;2023-05-10T09:43:07;27.30;28.80
27266;DHT22;14766;51.380;13.762;2023-05-10T09:45:35;27.30;28.80
27266;DHT22;14766;51.380;13.762;2023-05-10T09:48:05;27.30;28.90
27266;DHT22;14766;51.380;13.762;2023-05-10T09:50:33;27.30;29.10
27266;DHT22;14766;51.380;13.762;2023-05-10T09:53:02;27.40;29.00
27266;DHT22;14766;51.380;13.762;2023-05-10T09:55:44;27.50;29.10
27266;DHT22;14766;51.380;13.762;2023-05-10T09:58:13;27.60;28.80
27266;DHT22;14766;51.380;13.762;2023-05-10T10:00:45;27.60;28.80
27266;DHT22;14766;51.380;13.762;2023-05-10T10:03:17;27.60;28.70
27266;DHT22;14766;51.380;13.762;2023-05-10T10:05:44;27.70;28.70
27266;DHT22;14766;51.380;13.762;2023-05-10T10:08:13;27.70;28.50
27266;DHT22;14766;51.380;13.762;2023-05-10T10:10:41;27.60;28.30
27266;DHT22;14766;51.380;13.762;2023-05-10T10:13:08;27.60;28.70
27266;DHT22;14766;51.380;13.762;2023-05-10T10:15:36;27.50;28.80
27266;DHT22;14766;51.380;13.762;2023-05-10T10:18:05;27.60;28.80
27266;DHT22;14766;51.380;13.762;2023-05-10T10:20:32;27.60;28.90
27266;DHT22;14766;51.380;13.762;2023-05-10T10:22:59;27.50;28.90
27266;DHT22;14766;51.380;13.762;2023-05-10T10:25:26;27.60;28.70
27266;DHT22;14766;51.380;13.762;2023-05-10T10:30:43;27.60;28.90
27266;DHT22;14766;51.380;13.762;2023-05-10T10:36:16;27.60;28.50
27266;DHT22;14766;51.380;13.762;2023-05-10T10:41:49;27.60;28.70
27266;DHT22;14766;51.380;13.762;2023-05-10T10:44:23;27.70;28.70
27266;DHT22;14766;51.380;13.762;2023-05-10T10:47:21;27.70;29.10
27266;DHT22;14766;51.380;13.762;2023-05-10T10:52:33;27.80;29.70
27266;DHT22;14766;51.380;13.762;2023-05-10T10:55:19;27.80;28.90
27266;DHT22;14766;51.380;13.762;2023-05-10T11:08:18;28.00;28.50
27266;DHT22;14766;51.380;13.762;2023-05-10T11:11:14;28.00;28.40
27266;DHT22;14766;51.380;13.762;2023-05-10T11:13:45;28.00;28.30
27266;DHT22;14766;51.380;13.762;2023-05-10T11:19:02;28.00;28.30
27266;DHT22;14766;51.380;13.762;2023-05-10T11:21:31;28.00;28.60
27266;DHT22;14766;51.380;13.762;2023-05-10T11:24:00;28.00;28.40
27266;DHT22;14766;51.380;13.762;2023-05-10T11:26:33;28.10;27.90
27266;DHT22;14766;51.380;13.762;2023-05-10T11:29:02;28.10;27.90
27266;DHT22;14766;51.380;13.762;2023-05-10T11:31:31;28.10;28.30
27266;DHT22;14766;51.380;13.762;2023-05-10T11:33:59;28.10;27.90
27266;DHT22;14766;51.380;13.762;2023-05-10T11:36:32;28.00;28.10
27266;DHT22;14766;51.380;13.762;2023-05-10T11:39:00;28.00;28.00
27266;DHT22;14766;51.380;13.762;2023-05-10T11:41:29;28.00;27.70
27266;DHT22;14766;51.380;13.762;2023-05-10T11:43:57;28.00;27.80
27266;DHT22;14766;51.380;13.762;2023-05-10T11:46:26;28.00;28.00
27266;DHT22;14766;51.380;13.762;2023-05-10T11:48:59;27.90;28.30
27266;DHT22;14766;51.380;13.762;2023-05-10T11:51:34;28.00;28.20
27266;DHT22;14766;51.380;13.762;2023-05-10T11:54:08;28.00;28.10
27266;DHT22;14766;51.380;13.762;2023-05-10T11:56:37;28.00;28.00
27266;DHT22;14766;51.380;13.762;2023-05-10T11:59:04;27.90;28.10
27266;DHT22;14766;51.380;13.762;2023-05-10T12:01:31;27.90;27.80
27266;DHT22;14766;51.380;13.762;2023-05-10T12:03:58;27.90;27.70
27266;DHT22;14766;51.380;13.762;2023-05-10T12:06:30;27.90;27.80
27266;DHT22;14766;51.380;13.762;2023-05-10T12:08:58;27.80;28.30
27266;DHT22;14766;51.380;13.762;2023-05-10T12:11:28;27.80;28.40
27266;DHT22;14766;51.380;13.762;2023-05-10T12:13:55;27.70;28.00
27266;DHT22;14766;51.380;13.762;2023-05-10T12:16:25;27.70;27.90
27266;DHT22;14766;51.380;13.762;2023-05-10T12:18:58;27.60;28.00
27266;DHT22;14766;51.380;13.762;2023-05-10T12:21:27;27.50;28.30
27266;DHT22;14766;51.380;13.762;2023-05-10T12:24:02;27.50;28.10
27266;DHT22;14766;51.380;13.762;2023-05-10T12:26:30;27.40;28.20
27266;DHT22;14766;51.380;13.762;2023-05-10T12:29:18;27.40;28.10
27266;DHT22;14766;51.380;13.762;2023-05-10T12:31:50;27.40;27.90
27266;DHT22;14766;51.380;13.762;2023-05-10T12:34:43;27.30;27.80
27266;DHT22;14766;51.380;13.762;2023-05-10T12:37:13;27.30;28.20
27266;DHT22;14766;51.380;13.762;2023-05-10T12:39:44;27.30;29.00
27266;DHT22;14766;51.380;13.762;2023-05-10T12:42:12;27.30;28.70
27266;DHT22;14766;51.380;13.762;2023-05-10T12:44:40;27.30;28.70
27266;DHT22;14766;51.380;13.762;2023-05-10T12:47:08;27.30;28.90
27266;DHT22;14766;51.380;13.762;2023-05-10T12:49:35;27.30;28.60
27266;DHT22;14766;51.380;13.762;2023-05-10T12:52:02;27.30;29.00
27266;DHT22;14766;51.380;13.762;2023-05-10T12:54:29;27.20;28.90
27266;DHT22;14766;51.380;13.762;2023-05-10T12:56:56;27.30;29.30
27266;DHT22;14766;51.380;13.762;2023-05-10T12:59:23;27.20;28.90
27266;DHT22;14766;51.380;13.762;2023-05-10T13:01:50;27.20;28.50
27266;DHT22;14766;51.380;13.762;2023-05-10T13:04:17;27.20;28.70
27266;DHT22;14766;51.380;13.762;2023-05-10T13:06:45;27.20;28.70
27266;DHT22;14766;51.380;13.762;2023-05-10T13:09:12;27.20;28.80
27266;DHT22;14766;51.380;13.762;2023-05-10T13:11:40;27.20;29.00
27266;DHT22;14766;51.380;13.762;2023-05-10T13:14:07;27.10;29.00
27266;DHT22;14766;51.380;13.762;2023-05-10T13:16:35;27.10;28.70
27266;DHT22;14766;51.380;13.762;2023-05-10T13:19:03;27.10;29.40
27266;DHT22;14766;51.380;13.762;2023-05-10T13:21:30;27.00;28.80
27266;DHT22;14766;51.380;13.762;2023-05-10T13:23:57;27.00;28.90
27266;DHT22;14766;51.380;13.762;2023-05-10T13:26:24;27.00;29.00
27266;DHT22;14766;51.380;13.762;2023-05-10T13:28:52;27.00;28.80
27266;DHT22;14766;51.380;13.762;2023-05-10T13:31:19;26.90;29.50
27266;DHT22;14766;51.380;13.762;2023-05-10T13:33:50;26.90;29.00
27266;DHT22;14766;51.380;13.762;2023-05-10T13:36:18;26.90;29.60
27266;DHT22;14766;51.380;13.762;2023-05-10T13:38:45;26.90;32.00
27266;DHT22;14766;51.380;13.762;2023-05-10T13:41:13;26.80;35.50
27266;DHT22;14766;51.380;13.762;2023-05-10T13:43:40;26.70;36.20
27266;DHT22;14766;51.380;13.762;2023-05-10T13:46:07;26.70;36.50
27266;DHT22;14766;51.380;13.762;2023-05-10T13:48:35;26.50;36.80
27266;DHT22;14766;51.380;13.762;2023-05-10T13:51:04;26.40;37.90
27266;DHT22;14766;51.380;13.762;2023-05-10T13:53:31;26.30;37.30
27266;DHT22;14766;51.380;13.762;2023-05-10T13:55:58;26.30;37.70
27266;DHT22;14766;51.380;13.762;2023-05-10T13:58:25;26.20;37.50
27266;DHT22;14766;51.380;13.762;2023-05-10T14:00:53;26.20;37.50
27266;DHT22;14766;51.380;13.762;2023-05-10T14:03:20;26.10;37.60
27266;DHT22;14766;51.380;13.762;2023-05-10T14:05:48;26.00;37.70
27266;DHT22;14766;51.380;13.762;2023-05-10T14:08:14;25.90;38.00
27266;DHT22;14766;51.380;13.762;2023-05-10T14:10:42;25.90;37.80
27266;DHT22;14766;51.380;13.762;2023-05-10T14:13:09;25.80;37.90
27266;DHT22;14766;51.380;13.762;2023-05-10T14:15:36;25.80;38.30
27266;DHT22;14766;51.380;13.762;2023-05-10T14:18:04;25.70;38.60
27266;DHT22;14766;51.380;13.762;2023-05-10T14:20:32;25.70;39.00
27266;DHT22;14766;51.380;13.762;2023-05-10T14:23:00;25.70;39.10
27266;DHT22;14766;51.380;13.762;2023-05-10T14:25:28;25.70;39.40
27266;DHT22;14766;51.380;13.762;2023-05-10T14:27:55;25.70;39.70
27266;DHT22;14766;51.380;13.762;2023-05-10T14:30:22;25.70;39.70
27266;DHT22;14766;51.380;13.762;2023-05-10T14:32:49;25.70;39.90
27266;DHT22;14766;51.380;13.762;2023-05-10T14:35:17;25.70;40.30
27266;DHT22;14766;51.380;13.762;2023-05-10T14:37:45;25.60;40.20
27266;DHT22;14766;51.380;13.762;2023-05-10T14:40:13;25.60;40.30
27266;DHT22;14766;51.380;13.762;2023-05-10T14:42:42;25.50;40.40
27266;DHT22;14766;51.380;13.762;2023-05-10T14:45:10;25.40;40.70
27266;DHT22;14766;51.380;13.762;2023-05-10T14:47:37;25.40;41.10
27266;DHT22;14766;51.380;13.762;2023-05-10T14:50:05;25.30;41.40
27266;DHT22;14766;51.380;13.762;2023-05-10T14:52:32;25.20;41.60
27266;DHT22;14766;51.380;13.762;2023-05-10T14:55:00;25.20;41.70
27266;DHT22;14766;51.380;13.762;2023-05-10T14:57:28;25.10;41.50
27266;DHT22;14766;51.380;13.762;2023-05-10T14:59:56;25.00;41.50
27266;DHT22;14766;51.380;13.762;2023-05-10T15:02:24;25.00;41.50
27266;DHT22;14766;51.380;13.762;2023-05-10T15:04:51;24.90;41.80
27266;DHT22;14766;51.380;13.762;2023-05-10T15:07:19;24.90;42.10
27266;DHT22;14766;51.380;13.762;2023-05-10T15:09:46;24.80;41.90
27266;DHT22;14766;51.380;13.762;2023-05-10T15:12:13;24.80;42.50
27266;DHT22;14766;51.380;13.762;2023-05-10T15:14:40;24.70;42.80
27266;DHT22;14766;51.380;13.762;2023-05-10T15:17:07;24.70;43.10
27266;DHT22;14766;51.380;13.762;2023-05-10T15:19:34;24.70;43.20
27266;DHT22;14766;51.380;13.762;2023-05-10T15:22:03;24.60;43.10
27266;DHT22;14766;51.380;13.762;2023-05-10T15:24:31;24.60;43.00
27266;DHT22;14766;51.380;13.762;2023-05-10T15:26:58;24.60;43.20
27266;DHT22;14766;51.380;13.762;2023-05-10T15:29:25;24.60;43.20
27266;DHT22;14766;51.380;13.762;2023-05-10T15:31:52;24.60;43.40
27266;DHT22;14766;51.380;13.762;2023-05-10T15:34:19;24.50;43.30
27266;DHT22;14766;51.380;13.762;2023-05-10T15:36:49;24.50;42.90
27266;DHT22;14766;51.380;13.762;2023-05-10T15:39:16;24.60;43.30
27266;DHT22;14766;51.380;13.762;2023-05-10T15:41:43;24.60;43.30
27266;DHT22;14766;51.380;13.762;2023-05-10T15:44:10;24.60;43.30
27266;DHT22;14766;51.380;13.762;2023-05-10T15:46:38;24.60;43.80
27266;DHT22;14766;51.380;13.762;2023-05-10T15:49:05;24.60;43.80
27266;DHT22;14766;51.380;13.762;2023-05-10T15:51:33;24.60;43.70
27266;DHT22;14766;51.380;13.762;2023-05-10T15:54:02;24.60;43.30
27266;DHT22;14766;51.380;13.762;2023-05-10T15:56:34;24.60;43.50
27266;DHT22;14766;51.380;13.762;2023-05-10T15:59:01;24.60;43.50
27266;DHT22;14766;51.380;13.762;2023-05-10T16:01:30;24.60;43.70
27266;DHT22;14766;51.380;13.762;2023-05-10T16:03:59;24.50;43.60
27266;DHT22;14766;51.380;13.762;2023-05-10T16:06:26;24.50;43.70
27266;DHT22;14766;51.380;13.762;2023-05-10T16:08:54;24.40;43.60
27266;DHT22;14766;51.380;13.762;2023-05-10T16:11:22;24.40;44.50
27266;DHT22;14766;51.380;13.762;2023-05-10T16:13:49;24.30;43.80
27266;DHT22;14766;51.380;13.762;2023-05-10T16:16:16;24.30;43.50